sensor_id;sensor_type;location;lat;lon;timestamp;P1;durP1;ratioP1;P2;durP2;ratioP2
64426;SDS011;50772;51.482;-0.580;2023-09-19T00:00:03;1.73;;;0.88;;
64426;SDS011;50772;51.482;-0.580;2023-09-19T00:02:28;8.20;;;1.25;;
64426;SDS011;50772;51.482;-0.580;2023-09-19T00:04:54;3.45;;;1.42;;
64426;SDS011;50772;51.482;-0.580;2023-09-19T00:07:19;2.70;;;1.50;;
64426;SDS011;50772;51.482;-0.580;2023-09-19T00:09:46;4.65;;;1.38;;
64426;SDS011;50772;51.482;-0.580;2023-09-19T00:12:11;3.57;;;1.87;;
64426;SDS011;50772;51.482;-0.580;2023-09-19T00:14:38;7.07;;;1.40;;
64426;SDS011;50772;51.482;-0.580;2023-09-19T00:17:03;4.87;;;1.40;;
64426;SDS011;50772;51.482;-0.580;2023-09-19T00:19:30;2.70;;;1.02;;
64426;SDS011;50772;51.482;-0.580;2023-09-19T00:21:57;7.43;;;1.67;;
64426;SDS011;50772;51.482;-0.580;2023-09-19T00:24:22;4.47;;;1.48;;
64426;SDS011;50772;51.482;-0.580;2023-09-19T00:26:48;8.65;;;1.73;;
64426;SDS011;50772;51.482;-0.580;2023-09-19T00:29:13;5.83;;;1.10;;
64426;SDS011;50772;51.482;-0.580;2023-09-19T00:31:43;4.78;;;1.27;;
64426;SDS011;50772;51.482;-0.580;2023-09-19T00:34:08;6.22;;;1.35;;
64426;SDS011;50772;51.482;-0.580;2023-09-19T00:36:35;3.83;;;1.45;;
64426;SDS011;50772;51.482;-0.580;2023-09-19T00:39:03;6.45;;;1.70;;
64426;SDS011;50772;51.482;-0.580;2023-09-19T00:41:30;7.82;;;1.60;;
64426;SDS011;50772;51.482;-0.580;2023-09-19T00:43:55;8.02;;;1.75;;
64426;SDS011;50772;51.482;-0.580;2023-09-19T00:46:20;2.60;;;1.17;;
64426;SDS011;50772;51.482;-0.580;2023-09-19T00:48:46;7.47;;;1.40;;
64426;SDS011;50772;51.482;-0.580;2023-09-19T00:51:11;7.47;;;1.70;;
64426;SDS011;50772;51.482;-0.580;2023-09-19T00:53:38;5.05;;;1.35;;
64426;SDS011;50772;51.482;-0.580;2023-09-19T00:56:04;10.70;;;1.52;;
64426;SDS011;50772;51.482;-0.580;2023-09-19T00:58:32;8.77;;;1.88;;
64426;SDS011;50772;51.482;-0.580;2023-09-19T01:00:58;3.38;;;1.38;;
64426;SDS011;50772;51.482;-0.580;2023-09-19T01:03:24;7.78;;;1.45;;
64426;SDS011;50772;51.482;-0.580;2023-09-19T01:05:49;8.40;;;1.77;;
64426;SDS011;50772;51.482;-0.580;2023-09-19T01:08:14;4.35;;;1.50;;
64426;SDS011;50772;51.482;-0.580;2023-09-19T01:10:44;5.82;;;1.50;;
64426;SDS011;50772;51.482;-0.580;2023-09-19T01:18:35;5.63;;;1.80;;
64426;SDS011;50772;51.482;-0.580;2023-09-19T01:26:04;4.60;;;1.52;;
64426;SDS011;50772;51.482;-0.580;2023-09-19T01:31:09;7.63;;;2.00;;
64426;SDS011;50772;51.482;-0.580;2023-09-19T01:36:18;5.53;;;1.60;;
64426;SDS011;50772;51.482;-0.580;2023-09-19T01:38:43;7.03;;;1.67;;
64426;SDS011;50772;51.482;-0.580;2023-09-19T01:41:11;6.83;;;1.67;;
64426;SDS011;50772;51.482;-0.580;2023-09-19T01:43:38;7.28;;;1.75;;
64426;SDS011;50772;51.482;-0.580;2023-09-19T01:46:11;3.50;;;1.65;;
64426;SDS011;50772;51.482;-0.580;2023-09-19T01:51:20;8.02;;;1.80;;
64426;SDS011;50772;51.482;-0.580;2023-09-19T01:53:59;6.85;;;1.88;;
64426;SDS011;50772;51.482;-0.580;2023-09-19T01:56:34;10.77;;;1.90;;
64426;SDS011;50772;51.482;-0.580;2023-09-19T01:59:02;12.95;;;2.95;;
64426;SDS011;50772;51.482;-0.580;2023-09-19T02:01:29;8.45;;;2.35;;
64426;SDS011;50772;51.482;-0.580;2023-09-19T02:03:56;7.63;;;1.70;;
64426;SDS011;50772;51.482;-0.580;2023-09-19T02:06:21;4.40;;;1.73;;
64426;SDS011;50772;51.482;-0.580;2023-09-19T02:08:46;7.30;;;2.10;;
64426;SDS011;50772;51.482;-0.580;2023-09-19T02:11:12;4.80;;;1.80;;
64426;SDS011;50772;51.482;-0.580;2023-09-19T07:24:33;3.90;;;1.20;;
64426;SDS011;50772;51.482;-0.580;2023-09-19T07:27:01;3.78;;;1.40;;
64426;SDS011;50772;51.482;-0.580;2023-09-19T07:29:27;2.65;;;1.10;;
64426;SDS011;50772;51.482;-0.580;2023-09-19T07:31:52;6.03;;;1.38;;
64426;SDS011;50772;51.482;-0.580;2023-09-19T07:34:17;3.87;;;1.20;;
64426;SDS011;50772;51.482;-0.580;2023-09-19T07:36:43;1.95;;;1.33;;
64426;SDS011;50772;51.482;-0.580;2023-09-19T07:39:08;3.50;;;1.30;;
64426;SDS011;50772;51.482;-0.580;2023-09-19T07:41:34;1.98;;;1.27;;
64426;SDS011;50772;51.482;-0.580;2023-09-19T07:43:59;2.67;;;1.50;;
64426;SDS011;50772;51.482;-0.580;2023-09-19T07:46:24;5.87;;;1.43;;
64426;SDS011;50772;51.482;-0.580;2023-09-19T07:48:50;3.00;;;1.40;;
64426;SDS011;50772;51.482;-0.580;2023-09-19T07:51:16;3.70;;;1.40;;
64426;SDS011;50772;51.482;-0.580;2023-09-19T07:53:42;4.30;;;1.38;;
64426;SDS011;50772;51.482;-0.580;2023-09-19T07:56:08;9.60;;;1.70;;
64426;SDS011;50772;51.482;-0.580;2023-09-19T07:58:33;3.92;;;1.50;;
64426;SDS011;50772;51.482;-0.580;2023-09-19T08:01:02;3.00;;;1.55;;
64426;SDS011;50772;51.482;-0.580;2023-09-19T08:03:27;2.70;;;1.35;;
64426;SDS011;50772;51.482;-0.580;2023-09-19T08:05:53;2.93;;;1.43;;
64426;SDS011;50772;51.482;-0.580;2023-09-19T08:08:18;4.43;;;1.43;;
64426;SDS011;50772;51.482;-0.580;2023-09-19T08:10:43;4.87;;;1.80;;
64426;SDS011;50772;51.482;-0.580;2023-09-19T08:13:10;4.35;;;1.65;;
64426;SDS011;50772;51.482;-0.580;2023-09-19T08:15:43;2.97;;;1.67;;
64426;SDS011;50772;51.482;-0.580;2023-09-19T08:18:09;3.73;;;1.93;;
64426;SDS011;50772;51.482;-0.580;2023-09-19T08:20:37;5.82;;;1.73;;
64426;SDS011;50772;51.482;-0.580;2023-09-19T08:23:03;4.32;;;1.63;;
64426;SDS011;50772;51.482;-0.580;2023-09-19T08:25:28;5.90;;;1.92;;
64426;SDS011;50772;51.482;-0.580;2023-09-19T08:27:54;10.15;;;2.03;;
64426;SDS011;50772;51.482;-0.580;2023-09-19T08:30:23;3.58;;;2.38;;
64426;SDS011;50772;51.482;-0.580;2023-09-19T08:32:49;5.53;;;1.85;;
64426;SDS011;50772;51.482;-0.580;2023-09-19T08:35:14;6.07;;;2.38;;
64426;SDS011;50772;51.482;-0.580;2023-09-19T08:37:39;6.57;;;2.08;;
64426;SDS011;50772;51.482;-0.580;2023-09-19T08:40:05;3.00;;;1.90;;
64426;SDS011;50772;51.482;-0.580;2023-09-19T08:42:46;9.87;;;2.53;;
64426;SDS011;50772;51.482;-0.580;2023-09-19T08:45:12;5.38;;;2.00;;
64426;SDS011;50772;51.482;-0.580;2023-09-19T08:47:39;9.13;;;2.03;;
64426;SDS011;50772;51.482;-0.580;2023-09-19T08:50:11;3.30;;;2.13;;
64426;SDS011;50772;51.482;-0.580;2023-09-19T08:52:43;5.78;;;2.40;;
64426;SDS011;50772;51.482;-0.580;2023-09-19T08:55:12;5.85;;;2.20;;
64426;SDS011;50772;51.482;-0.580;2023-09-19T08:57:38;7.82;;;1.90;;
64426;SDS011;50772;51.482;-0.580;2023-09-19T09:00:07;6.05;;;2.10;;
64426;SDS011;50772;51.482;-0.580;2023-09-19T09:02:37;4.70;;;1.85;;
64426;SDS011;50772;51.482;-0.580;2023-09-19T09:05:03;5.28;;;2.00;;
64426;SDS011;50772;51.482;-0.580;2023-09-19T09:07:30;2.90;;;1.90;;
64426;SDS011;50772;51.482;-0.580;2023-09-19T09:09:55;5.75;;;1.70;;
64426;SDS011;50772;51.482;-0.580;2023-09-19T09:12:21;5.38;;;1.60;;
64426;SDS011;50772;51.482;-0.580;2023-09-19T09:14:46;4.20;;;1.80;;
64426;SDS011;50772;51.482;-0.580;2023-09-19T09:17:14;3.00;;;1.98;;
64426;SDS011;50772;51.482;-0.580;2023-09-19T09:19:40;7.22;;;2.38;;
64426;SDS011;50772;51.482;-0.580;2023-09-19T09:22:09;3.65;;;1.90;;
64426;SDS011;50772;51.482;-0.580;2023-09-19T09:24:34;5.50;;;2.15;;
64426;SDS011;50772;51.482;-0.580;2023-09-19T09:27:03;7.28;;;2.20;;
64426;SDS011;50772;51.482;-0.580;2023-09-19T09:29:39;8.02;;;2.15;;
64426;SDS011;50772;51.482;-0.580;2023-09-19T09:34:43;6.93;;;2.40;;
64426;SDS011;50772;51.482;-0.580;2023-09-19T09:37:12;4.28;;;2.50;;
64426;SDS011;50772;51.482;-0.580;2023-09-19T09:39:40;5.53;;;2.58;;
64426;SDS011;50772;51.482;-0.580;2023-09-19T09:42:05;5.45;;;2.42;;
64426;SDS011;50772;51.482;-0.580;2023-09-19T09:44:31;5.30;;;2.22;;
64426;SDS011;50772;51.482;-0.580;2023-09-19T09:46:57;5.95;;;2.78;;
64426;SDS011;50772;51.482;-0.580;2023-09-19T09:49:47;8.30;;;2.80;;
64426;SDS011;50772;51.482;-0.580;2023-09-19T09:52:19;5.45;;;2.90;;
64426;SDS011;50772;51.482;-0.580;2023-09-19T09:55:02;4.75;;;2.63;;
64426;SDS011;50772;51.482;-0.580;2023-09-19T09:57:32;5.40;;;2.38;;
64426;SDS011;50772;51.482;-0.580;2023-09-19T09:59:58;9.38;;;3.03;;
64426;SDS011;50772;51.482;-0.580;2023-09-19T10:02:40;7.13;;;3.42;;
64426;SDS011;50772;51.482;-0.580;2023-09-19T10:05:13;6.82;;;3.03;;
64426;SDS011;50772;51.482;-0.580;2023-09-19T10:07:38;7.20;;;2.75;;
64426;SDS011;50772;51.482;-0.580;2023-09-19T10:10:06;6.85;;;2.88;;
64426;SDS011;50772;51.482;-0.580;2023-09-19T10:12:42;7.53;;;3.03;;
64426;SDS011;50772;51.482;-0.580;2023-09-19T10:15:08;9.75;;;2.75;;
64426;SDS011;50772;51.482;-0.580;2023-09-19T10:17:36;9.68;;;2.42;;
64426;SDS011;50772;51.482;-0.580;2023-09-19T10:20:01;8.20;;;2.53;;
64426;SDS011;50772;51.482;-0.580;2023-09-19T10:22:34;3.78;;;2.28;;
64426;SDS011;50772;51.482;-0.580;2023-09-19T10:25:00;6.82;;;2.42;;
64426;SDS011;50772;51.482;-0.580;2023-09-19T10:27:26;11.23;;;2.45;;
64426;SDS011;50772;51.482;-0.580;2023-09-19T10:29:51;8.63;;;2.65;;
64426;SDS011;50772;51.482;-0.580;2023-09-19T10:32:20;5.75;;;2.25;;
64426;SDS011;50772;51.482;-0.580;2023-09-19T10:34:49;6.57;;;2.42;;
64426;SDS011;50772;51.482;-0.580;2023-09-19T10:37:15;8.13;;;2.58;;
64426;SDS011;50772;51.482;-0.580;2023-09-19T10:39:45;5.68;;;2.15;;
64426;SDS011;50772;51.482;-0.580;2023-09-19T10:42:11;4.85;;;2.40;;
64426;SDS011;50772;51.482;-0.580;2023-09-19T10:44:40;4.10;;;2.60;;
64426;SDS011;50772;51.482;-0.580;2023-09-19T10:47:08;5.38;;;2.15;;
64426;SDS011;50772;51.482;-0.580;2023-09-19T10:49:34;7.80;;;2.38;;
64426;SDS011;50772;51.482;-0.580;2023-09-19T10:51:59;5.70;;;2.53;;
64426;SDS011;50772;51.482;-0.580;2023-09-19T10:54:28;7.68;;;2.22;;
64426;SDS011;50772;51.482;-0.580;2023-09-19T10:56:57;3.50;;;1.98;;
64426;SDS011;50772;51.482;-0.580;2023-09-19T10:59:24;7.93;;;2.25;;
64426;SDS011;50772;51.482;-0.580;2023-09-19T11:04:28;3.55;;;1.80;;
64426;SDS011;50772;51.482;-0.580;2023-09-19T11:15:02;4.18;;;1.90;;
64426;SDS011;50772;51.482;-0.580;2023-09-19T11:17:38;3.70;;;2.28;;
64426;SDS011;50772;51.482;-0.580;2023-09-19T11:30:30;8.73;;;2.10;;
64426;SDS011;50772;51.482;-0.580;2023-09-19T11:36:01;2.63;;;1.60;;
64426;SDS011;50772;51.482;-0.580;2023-09-19T11:46:28;3.28;;;1.92;;
64426;SDS011;50772;51.482;-0.580;2023-09-19T11:48:54;1.95;;;1.73;;
64426;SDS011;50772;51.482;-0.580;2023-09-19T11:51:21;2.55;;;1.48;;
64426;SDS011;50772;51.482;-0.580;2023-09-19T11:53:52;4.40;;;1.60;;
64426;SDS011;50772;51.482;-0.580;2023-09-19T11:56:18;2.43;;;1.80;;
64426;SDS011;50772;51.482;-0.580;2023-09-19T11:58:45;1.92;;;1.70;;
64426;SDS011;50772;51.482;-0.580;2023-09-19T12:01:14;3.13;;;1.55;;
64426;SDS011;50772;51.482;-0.580;2023-09-19T12:03:41;2.95;;;1.48;;
64426;SDS011;50772;51.482;-0.580;2023-09-19T12:06:14;6.00;;;1.85;;
64426;SDS011;50772;51.482;-0.580;2023-09-19T12:08:40;4.78;;;1.80;;
64426;SDS011;50772;51.482;-0.580;2023-09-19T12:11:07;2.65;;;1.58;;
64426;SDS011;50772;51.482;-0.580;2023-09-19T12:13:35;3.50;;;1.73;;
64426;SDS011;50772;51.482;-0.580;2023-09-19T12:16:10;3.75;;;1.33;;
64426;SDS011;50772;51.482;-0.580;2023-09-19T12:18:36;3.10;;;1.88;;
64426;SDS011;50772;51.482;-0.580;2023-09-19T12:21:01;1.80;;;1.70;;
64426;SDS011;50772;51.482;-0.580;2023-09-19T12:23:29;5.30;;;2.22;;
64426;SDS011;50772;51.482;-0.580;2023-09-19T12:25:55;5.80;;;1.87;;
64426;SDS011;50772;51.482;-0.580;2023-09-19T12:28:22;3.08;;;1.58;;
64426;SDS011;50772;51.482;-0.580;2023-09-19T12:30:49;2.17;;;1.80;;
64426;SDS011;50772;51.482;-0.580;2023-09-19T12:33:20;6.90;;;2.40;;
64426;SDS011;50772;51.482;-0.580;2023-09-19T12:35:46;2.65;;;1.58;;
64426;SDS011;50772;51.482;-0.580;2023-09-19T12:38:21;3.58;;;1.70;;
64426;SDS011;50772;51.482;-0.580;2023-09-19T12:40:48;1.77;;;1.17;;
64426;SDS011;50772;51.482;-0.580;2023-09-19T12:43:16;1.65;;;1.38;;
64426;SDS011;50772;51.482;-0.580;2023-09-19T12:45:42;3.92;;;1.60;;
64426;SDS011;50772;51.482;-0.580;2023-09-19T12:48:26;3.65;;;1.42;;
64426;SDS011;50772;51.482;-0.580;2023-09-19T12:50:59;4.10;;;1.58;;
64426;SDS011;50772;51.482;-0.580;2023-09-19T12:53:28;2.28;;;1.38;;
64426;SDS011;50772;51.482;-0.580;2023-09-19T12:56:00;3.08;;;1.63;;
64426;SDS011;50772;51.482;-0.580;2023-09-19T12:58:26;3.92;;;1.38;;
64426;SDS011;50772;51.482;-0.580;2023-09-19T13:00:51;2.90;;;1.33;;
64426;SDS011;50772;51.482;-0.580;2023-09-19T13:05:59;4.82;;;1.35;;
64426;SDS011;50772;51.482;-0.580;2023-09-19T13:08:29;2.42;;;1.60;;
64426;SDS011;50772;51.482;-0.580;2023-09-19T13:11:14;3.28;;;1.23;;
64426;SDS011;50772;51.482;-0.580;2023-09-19T13:14:13;1.95;;;1.33;;
64426;SDS011;50772;51.482;-0.580;2023-09-19T13:22:01;2.83;;;1.48;;
64426;SDS011;50772;51.482;-0.580;2023-09-19T13:24:28;1.83;;;1.40;;
64426;SDS011;50772;51.482;-0.580;2023-09-19T13:26:55;1.85;;;1.40;;
64426;SDS011;50772;51.482;-0.580;2023-09-19T13:29:20;3.22;;;1.50;;
64426;SDS011;50772;51.482;-0.580;2023-09-19T13:31:49;2.92;;;1.55;;
64426;SDS011;50772;51.482;-0.580;2023-09-19T13:34:15;2.00;;;1.80;;
64426;SDS011;50772;51.482;-0.580;2023-09-19T13:36:43;1.92;;;1.55;;
64426;SDS011;50772;51.482;-0.580;2023-09-19T13:39:08;3.45;;;1.20;;
64426;SDS011;50772;51.482;-0.580;2023-09-19T13:41:34;4.35;;;1.58;;
64426;SDS011;50772;51.482;-0.580;2023-09-19T13:44:01;3.65;;;1.50;;
64426;SDS011;50772;51.482;-0.580;2023-09-19T13:46:29;1.83;;;1.27;;
64426;SDS011;50772;51.482;-0.580;2023-09-19T13:48:56;3.10;;;1.58;;
64426;SDS011;50772;51.482;-0.580;2023-09-19T13:51:21;1.90;;;1.40;;
64426;SDS011;50772;51.482;-0.580;2023-09-19T13:53:48;2.20;;;1.55;;
64426;SDS011;50772;51.482;-0.580;2023-09-19T13:56:13;1.58;;;1.17;;
64426;SDS011;50772;51.482;-0.580;2023-09-19T13:58:39;2.17;;;1.27;;
64426;SDS011;50772;51.482;-0.580;2023-09-19T14:01:04;1.33;;;1.10;;
64426;SDS011;50772;51.482;-0.580;2023-09-19T14:03:29;1.52;;;1.38;;
64426;SDS011;50772;51.482;-0.580;2023-09-19T14:05:55;4.00;;;2.00;;
64426;SDS011;50772;51.482;-0.580;2023-09-19T14:08:20;4.70;;;1.43;;
64426;SDS011;50772;51.482;-0.580;2023-09-19T14:10:45;2.53;;;1.30;;
64426;SDS011;50772;51.482;-0.580;2023-09-19T14:13:10;3.05;;;1.88;;
64426;SDS011;50772;51.482;-0.580;2023-09-19T14:15:38;1.40;;;1.15;;
64426;SDS011;50772;51.482;-0.580;2023-09-19T14:18:04;1.98;;;1.40;;
64426;SDS011;50772;51.482;-0.580;2023-09-19T14:20:29;1.83;;;1.23;;
64426;SDS011;50772;51.482;-0.580;2023-09-19T14:22:55;3.20;;;1.55;;
64426;SDS011;50772;51.482;-0.580;2023-09-19T14:25:23;3.38;;;1.10;;
64426;SDS011;50772;51.482;-0.580;2023-09-19T14:27:48;2.03;;;1.33;;
64426;SDS011;50772;51.482;-0.580;2023-09-19T14:30:13;2.25;;;1.25;;
64426;SDS011;50772;51.482;-0.580;2023-09-19T14:32:39;1.60;;;1.38;;
64426;SDS011;50772;51.482;-0.580;2023-09-19T14:35:05;2.42;;;1.27;;
64426;SDS011;50772;51.482;-0.580;2023-09-19T14:37:30;8.93;;;1.75;;
64426;SDS011;50772;51.482;-0.580;2023-09-19T14:39:56;2.35;;;1.40;;
64426;SDS011;50772;51.482;-0.580;2023-09-19T14:42:21;4.63;;;1.20;;
64426;SDS011;50772;51.482;-0.580;2023-09-19T14:44:46;3.08;;;1.50;;
64426;SDS011;50772;51.482;-0.580;2023-09-19T14:47:13;1.98;;;1.30;;
64426;SDS011;50772;51.482;-0.580;2023-09-19T14:49:39;2.05;;;1.25;;
64426;SDS011;50772;51.482;-0.580;2023-09-19T14:52:08;1.60;;;1.02;;
64426;SDS011;50772;51.482;-0.580;2023-09-19T14:54:33;1.35;;;1.08;;
64426;SDS011;50772;51.482;-0.580;2023-09-19T14:56:58;1.80;;;1.48;;
64426;SDS011;50772;51.482;-0.580;2023-09-19T14:59:32;1.77;;;1.02;;
64426;SDS011;50772;51.482;-0.580;2023-09-19T15:01:58;1.43;;;1.13;;
64426;SDS011;50772;51.482;-0.580;2023-09-19T15:04:23;3.43;;;1.23;;
64426;SDS011;50772;51.482;-0.580;2023-09-19T15:06:49;5.40;;;0.98;;
64426;SDS011;50772;51.482;-0.580;2023-09-19T15:09:14;1.55;;;1.02;;
64426;SDS011;50772;51.482;-0.580;2023-09-19T15:11:40;2.90;;;1.10;;
64426;SDS011;50772;51.482;-0.580;2023-09-19T15:14:05;2.00;;;1.07;;
64426;SDS011;50772;51.482;-0.580;2023-09-19T15:16:30;1.53;;;0.97;;
64426;SDS011;50772;51.482;-0.580;2023-09-19T15:18:57;1.52;;;0.88;;
64426;SDS011;50772;51.482;-0.580;2023-09-19T15:21:23;2.20;;;0.90;;
64426;SDS011;50772;51.482;-0.580;2023-09-19T15:23:49;1.63;;;1.10;;
64426;SDS011;50772;51.482;-0.580;2023-09-19T15:26:14;1.43;;;1.33;;
64426;SDS011;50772;51.482;-0.580;2023-09-19T15:28:45;1.48;;;1.20;;
64426;SDS011;50772;51.482;-0.580;2023-09-19T15:31:11;2.97;;;1.20;;
64426;SDS011;50772;51.482;-0.580;2023-09-19T15:33:36;3.72;;;1.50;;
64426;SDS011;50772;51.482;-0.580;2023-09-19T15:36:02;6.38;;;1.50;;
64426;SDS011;50772;51.482;-0.580;2023-09-19T15:38:28;2.55;;;1.30;;
64426;SDS011;50772;51.482;-0.580;2023-09-19T15:40:54;1.92;;;1.20;;
64426;SDS011;50772;51.482;-0.580;2023-09-19T15:43:20;1.30;;;1.02;;
64426;SDS011;50772;51.482;-0.580;2023-09-19T15:45:46;2.45;;;1.20;;
64426;SDS011;50772;51.482;-0.580;2023-09-19T15:48:13;1.13;;;0.98;;
64426;SDS011;50772;51.482;-0.580;2023-09-19T15:50:38;2.97;;;1.60;;
64426;SDS011;50772;51.482;-0.580;2023-09-19T15:53:05;5.78;;;2.30;;
64426;SDS011;50772;51.482;-0.580;2023-09-19T15:55:30;3.93;;;2.07;;
64426;SDS011;50772;51.482;-0.580;2023-09-19T15:57:55;2.10;;;1.52;;
64426;SDS011;50772;51.482;-0.580;2023-09-19T16:00:22;3.22;;;1.60;;
64426;SDS011;50772;51.482;-0.580;2023-09-19T16:02:47;2.87;;;1.73;;
64426;SDS011;50772;51.482;-0.580;2023-09-19T16:05:15;5.38;;;2.05;;
64426;SDS011;50772;51.482;-0.580;2023-09-19T16:07:40;3.58;;;1.60;;
64426;SDS011;50772;51.482;-0.580;2023-09-19T16:10:06;3.90;;;1.50;;
64426;SDS011;50772;51.482;-0.580;2023-09-19T16:12:32;4.07;;;1.95;;
64426;SDS011;50772;51.482;-0.580;2023-09-19T16:14:57;4.47;;;2.10;;
64426;SDS011;50772;51.482;-0.580;2023-09-19T16:17:23;4.53;;;1.73;;
64426;SDS011;50772;51.482;-0.580;2023-09-19T16:19:48;5.90;;;1.60;;
64426;SDS011;50772;51.482;-0.580;2023-09-19T16:22:13;4.93;;;1.70;;
64426;SDS011;50772;51.482;-0.580;2023-09-19T16:24:39;5.07;;;2.15;;
64426;SDS011;50772;51.482;-0.580;2023-09-19T16:27:04;6.28;;;2.13;;
64426;SDS011;50772;51.482;-0.580;2023-09-19T16:29:30;6.95;;;2.30;;
64426;SDS011;50772;51.482;-0.580;2023-09-19T16:31:56;4.45;;;2.13;;
64426;SDS011;50772;51.482;-0.580;2023-09-19T16:34:23;5.13;;;1.80;;
64426;SDS011;50772;51.482;-0.580;2023-09-19T16:36:48;5.70;;;2.20;;
64426;SDS011;50772;51.482;-0.580;2023-09-19T16:39:13;8.03;;;2.60;;
64426;SDS011;50772;51.482;-0.580;2023-09-19T16:41:39;5.37;;;2.40;;
64426;SDS011;50772;51.482;-0.580;2023-09-19T16:44:06;5.97;;;1.63;;
64426;SDS011;50772;51.482;-0.580;2023-09-19T16:46:32;6.25;;;1.92;;
64426;SDS011;50772;51.482;-0.580;2023-09-19T16:48:57;4.55;;;2.33;;
64426;SDS011;50772;51.482;-0.580;2023-09-19T16:51:23;5.07;;;2.03;;
64426;SDS011;50772;51.482;-0.580;2023-09-19T16:53:48;6.93;;;2.10;;
64426;SDS011;50772;51.482;-0.580;2023-09-19T16:56:19;3.08;;;1.90;;
64426;SDS011;50772;51.482;-0.580;2023-09-19T16:58:45;4.10;;;1.77;;
64426;SDS011;50772;51.482;-0.580;2023-09-19T17:01:14;7.85;;;2.30;;
64426;SDS011;50772;51.482;-0.580;2023-09-19T17:03:41;3.38;;;1.90;;
64426;SDS011;50772;51.482;-0.580;2023-09-19T17:06:07;2.83;;;1.95;;
64426;SDS011;50772;51.482;-0.580;2023-09-19T17:08:33;10.20;;;2.00;;
64426;SDS011;50772;51.482;-0.580;2023-09-19T17:11:00;5.65;;;1.85;;
64426;SDS011;50772;51.482;-0.580;2023-09-19T17:13:25;5.85;;;1.60;;
64426;SDS011;50772;51.482;-0.580;2023-09-19T17:16:01;6.32;;;1.80;;
64426;SDS011;50772;51.482;-0.580;2023-09-19T17:18:27;7.18;;;1.35;;
64426;SDS011;50772;51.482;-0.580;2023-09-19T17:20:53;3.40;;;1.30;;
64426;SDS011;50772;51.482;-0.580;2023-09-19T17:23:19;4.03;;;1.65;;
64426;SDS011;50772;51.482;-0.580;2023-09-19T17:25:44;6.60;;;1.80;;
64426;SDS011;50772;51.482;-0.580;2023-09-19T17:28:09;5.83;;;1.90;;
64426;SDS011;50772;51.482;-0.580;2023-09-19T17:30:36;7.88;;;1.80;;
64426;SDS011;50772;51.482;-0.580;2023-09-19T17:33:01;5.47;;;1.58;;
64426;SDS011;50772;51.482;-0.580;2023-09-19T17:35:26;5.93;;;1.88;;
64426;SDS011;50772;51.482;-0.580;2023-09-19T17:37:52;2.35;;;1.30;;
64426;SDS011;50772;51.482;-0.580;2023-09-19T17:40:17;3.53;;;1.73;;
64426;SDS011;50772;51.482;-0.580;2023-09-19T17:42:42;3.87;;;1.90;;
64426;SDS011;50772;51.482;-0.580;2023-09-19T17:45:11;4.07;;;1.73;;
64426;SDS011;50772;51.482;-0.580;2023-09-19T17:47:43;4.43;;;1.80;;
64426;SDS011;50772;51.482;-0.580;2023-09-19T17:50:11;4.05;;;1.77;;
64426;SDS011;50772;51.482;-0.580;2023-09-19T17:52:40;7.70;;;1.70;;
64426;SDS011;50772;51.482;-0.580;2023-09-19T17:55:06;4.33;;;1.80;;
64426;SDS011;50772;51.482;-0.580;2023-09-19T17:57:32;5.70;;;1.65;;
64426;SDS011;50772;51.482;-0.580;2023-09-19T17:59:57;6.50;;;2.33;;
64426;SDS011;50772;51.482;-0.580;2023-09-19T18:02:22;5.93;;;2.17;;
64426;SDS011;50772;51.482;-0.580;2023-09-19T18:04:48;2.77;;;1.77;;
64426;SDS011;50772;51.482;-0.580;2023-09-19T18:07:13;5.67;;;1.73;;
64426;SDS011;50772;51.482;-0.580;2023-09-19T18:09:38;6.33;;;1.90;;
64426;SDS011;50772;51.482;-0.580;2023-09-19T18:12:06;3.65;;;1.65;;
64426;SDS011;50772;51.482;-0.580;2023-09-19T18:14:32;3.97;;;1.50;;
64426;SDS011;50772;51.482;-0.580;2023-09-19T18:16:58;2.93;;;1.77;;
64426;SDS011;50772;51.482;-0.580;2023-09-19T18:19:23;7.22;;;2.15;;
64426;SDS011;50772;51.482;-0.580;2023-09-19T18:21:48;8.85;;;2.17;;
64426;SDS011;50772;51.482;-0.580;2023-09-19T18:24:15;4.13;;;2.38;;
64426;SDS011;50772;51.482;-0.580;2023-09-19T18:26:41;9.63;;;2.40;;
64426;SDS011;50772;51.482;-0.580;2023-09-19T18:29:07;5.30;;;1.90;;
64426;SDS011;50772;51.482;-0.580;2023-09-19T18:31:32;2.05;;;1.40;;
64426;SDS011;50772;51.482;-0.580;2023-09-19T18:34:00;4.85;;;1.75;;
64426;SDS011;50772;51.482;-0.580;2023-09-19T18:36:27;4.05;;;1.50;;
64426;SDS011;50772;51.482;-0.580;2023-09-19T18:38:55;1.93;;;1.13;;
64426;SDS011;50772;51.482;-0.580;2023-09-19T18:41:22;3.67;;;1.50;;
64426;SDS011;50772;51.482;-0.580;2023-09-19T18:43:48;3.88;;;1.73;;
64426;SDS011;50772;51.482;-0.580;2023-09-19T18:46:14;1.55;;;0.98;;
64426;SDS011;50772;51.482;-0.580;2023-09-19T18:48:45;1.52;;;1.10;;
64426;SDS011;50772;51.482;-0.580;2023-09-19T18:51:11;1.85;;;1.08;;
64426;SDS011;50772;51.482;-0.580;2023-09-19T18:53:37;3.50;;;1.27;;
64426;SDS011;50772;51.482;-0.580;2023-09-19T18:56:09;2.25;;;1.30;;
64426;SDS011;50772;51.482;-0.580;2023-09-19T18:58:44;4.43;;;1.58;;
64426;SDS011;50772;51.482;-0.580;2023-09-19T19:01:12;2.72;;;1.45;;
64426;SDS011;50772;51.482;-0.580;2023-09-19T19:03:37;4.10;;;1.38;;
64426;SDS011;50772;51.482;-0.580;2023-09-19T19:06:07;2.03;;;1.20;;
64426;SDS011;50772;51.482;-0.580;2023-09-19T19:08:33;3.20;;;1.63;;
64426;SDS011;50772;51.482;-0.580;2023-09-19T19:10:59;4.40;;;1.55;;
64426;SDS011;50772;51.482;-0.580;2023-09-19T19:13:24;3.65;;;1.33;;
64426;SDS011;50772;51.482;-0.580;2023-09-19T19:15:49;6.15;;;1.63;;
64426;SDS011;50772;51.482;-0.580;2023-09-19T19:18:15;3.17;;;1.65;;
64426;SDS011;50772;51.482;-0.580;2023-09-19T19:20:40;2.90;;;1.70;;
64426;SDS011;50772;51.482;-0.580;2023-09-19T19:23:06;2.10;;;1.30;;
64426;SDS011;50772;51.482;-0.580;2023-09-19T19:25:36;4.68;;;1.13;;
64426;SDS011;50772;51.482;-0.580;2023-09-19T19:28:01;1.77;;;1.40;;
64426;SDS011;50772;51.482;-0.580;2023-09-19T19:30:32;1.25;;;0.93;;
64426;SDS011;50772;51.482;-0.580;2023-09-19T19:32:59;1.90;;;1.27;;
64426;SDS011;50772;51.482;-0.580;2023-09-19T19:35:24;1.35;;;1.15;;
64426;SDS011;50772;51.482;-0.580;2023-09-19T19:37:54;3.47;;;1.17;;
64426;SDS011;50772;51.482;-0.580;2023-09-19T19:40:19;3.15;;;1.05;;
64426;SDS011;50772;51.482;-0.580;2023-09-19T19:42:44;2.10;;;1.20;;
64426;SDS011;50772;51.482;-0.580;2023-09-19T19:45:10;2.40;;;1.48;;
64426;SDS011;50772;51.482;-0.580;2023-09-19T19:47:35;2.15;;;1.30;;
64426;SDS011;50772;51.482;-0.580;2023-09-19T19:50:00;3.70;;;1.15;;
64426;SDS011;50772;51.482;-0.580;2023-09-19T19:52:26;1.27;;;0.87;;
64426;SDS011;50772;51.482;-0.580;2023-09-19T19:54:51;3.20;;;1.38;;
64426;SDS011;50772;51.482;-0.580;2023-09-19T19:57:20;1.80;;;1.10;;
64426;SDS011;50772;51.482;-0.580;2023-09-19T19:59:45;1.35;;;1.20;;
64426;SDS011;50772;51.482;-0.580;2023-09-19T20:02:11;1.25;;;0.95;;
64426;SDS011;50772;51.482;-0.580;2023-09-19T20:04:37;3.42;;;1.00;;
64426;SDS011;50772;51.482;-0.580;2023-09-19T20:07:05;1.75;;;1.00;;
64426;SDS011;50772;51.482;-0.580;2023-09-19T20:09:30;2.75;;;1.20;;
64426;SDS011;50772;51.482;-0.580;2023-09-19T20:11:56;3.07;;;1.20;;
64426;SDS011;50772;51.482;-0.580;2023-09-19T20:14:21;4.90;;;1.20;;
64426;SDS011;50772;51.482;-0.580;2023-09-19T20:16:47;2.13;;;1.50;;
64426;SDS011;50772;51.482;-0.580;2023-09-19T20:19:13;3.47;;;1.05;;
64426;SDS011;50772;51.482;-0.580;2023-09-19T20:21:39;3.00;;;1.20;;
64426;SDS011;50772;51.482;-0.580;2023-09-19T20:24:05;3.35;;;1.40;;
64426;SDS011;50772;51.482;-0.580;2023-09-19T20:26:35;4.18;;;1.23;;
64426;SDS011;50772;51.482;-0.580;2023-09-19T20:29:02;1.17;;;0.90;;
64426;SDS011;50772;51.482;-0.580;2023-09-19T20:31:28;1.40;;;1.30;;
64426;SDS011;50772;51.482;-0.580;2023-09-19T20:33:53;4.63;;;1.00;;
64426;SDS011;50772;51.482;-0.580;2023-09-19T20:36:22;1.48;;;1.10;;
64426;SDS011;50772;51.482;-0.580;2023-09-19T20:38:48;3.25;;;1.45;;
64426;SDS011;50772;51.482;-0.580;2023-09-19T20:41:16;1.40;;;1.30;;
64426;SDS011;50772;51.482;-0.580;2023-09-19T20:43:41;1.10;;;1.00;;